D. Carlos I — CTHJ — position and weather

sailwx.info

Track history (hours):
 
Tides and Currents Weather Stations Pressure Air Temp Water Temp Dewpoint Dewpoint Depression Visibility Wind Speed Wind Dir Waves Ship Positions

Oceanographic research ship D. Carlos I (Portugal)

Detailed information on ship capabilities available from University of Delaware's Ocean Information Center.

Last reported at 2017-Jul-21 10:56 UTC. Time now 2017-Jul-27 16:53 UTC.
Position N 38°14' W 026°37'.

Length 68 m; draft 6 m.

Type: Dredging. MMSI: 263144000.

Date/timePositionNaut miles runAvg speedWind from/ knotsBaromVisibWave heightAir tempDewpointWater temp
2017-Jul-21 10:56N 38°14' W 026°37'3 7.7
2017-Jul-21 10:30N 38°11' W 026°36'4 7.7
2017-Jul-21 10:00N 38°07' W 026°34'24 6.3
2017-Jul-21 06:10N 37°44' W 026°44'1 7.2
2017-Jul-21 06:00N 37°43' W 026°45'3 6.7
2017-Jul-21 05:30N 37°41' W 026°48'3 6.3
2017-Jul-21 05:01N 37°38' W 026°50'3 6.1
2017-Jul-21 04:30N 37°36' W 026°53'3 6.3
2017-Jul-21 04:00N 37°33' W 026°55'3 6.7
2017-Jul-21 03:30N 37°31' W 026°58'4 7.0
2017-Jul-21 03:00N 37°28' W 027°00'5 6.7
2017-Jul-21 02:17N 37°24' W 027°04'3 6.4
2017-Jul-21 01:52N 37°22' W 027°06'3 5.9
2017-Jul-21 01:25N 37°20' W 027°08'3 6.1
2017-Jul-21 01:00N 37°18' W 027°10'39 1.3
2017-Jul-19 17:52N 36°40' W 027°23'6 6.9
2017-Jul-19 17:03N 36°40' W 027°30'2 6.8
2017-Jul-19 16:44N 36°40' W 027°33'50 1.8
2017-Jul-18 13:07N 37°27' W 027°52'1 6.7
2017-Jul-18 12:59N 37°28' W 027°53'3 6.5
2017-Jul-18 12:30N 37°30' W 027°56'3 6.3
2017-Jul-18 12:00N 37°32' W 027°59'3 6.4
2017-Jul-18 11:30N 37°34' W 028°02'3 5.9
2017-Jul-18 11:00N 37°36' W 028°03'2 4.9
2017-Jul-18 10:30N 37°37' W 028°00'3 6.0
2017-Jul-18 10:00N 37°35' W 027°57'3 6.3
2017-Jul-18 09:30N 37°33' W 027°54'3 6.4
2017-Jul-18 09:00N 37°31' W 027°51'3 6.2
2017-Jul-18 08:30N 37°29' W 027°48'3 6.2
2017-Jul-18 08:00N 37°27' W 027°45'3 6.1
2017-Jul-18 07:30N 37°25' W 027°42'5 6.3
2017-Jul-18 06:39N 37°22' W 027°37'35 6.2
2017-Jul-18 01:01N 37°02' W 027°01'0 6.5
2017-Jul-18 01:00N 37°02' W 027°01'3 6.0
2017-Jul-18 00:29N 36°60' W 026°58'3 6.3
2017-Jul-17 23:55N 36°58' W 026°54'3 6.2
2017-Jul-17 23:27N 36°57' W 026°51'3 6.2
2017-Jul-17 22:57N 36°55' W 026°48'3 6.3
2017-Jul-17 22:28N 36°53' W 026°45'3 6.5
2017-Jul-17 22:00N 36°51' W 026°42'3 6.5
2017-Jul-17 21:30N 36°49' W 026°38'3 6.2
2017-Jul-17 21:00N 36°47' W 026°35'3 6.2
2017-Jul-17 20:30N 36°45' W 026°33'3 6.3
2017-Jul-17 20:00N 36°43' W 026°30'3 6.2
2017-Jul-17 19:30N 36°41' W 026°27'11 6.4
2017-Jul-17 17:46N 36°35' W 026°16'5 6.8
2017-Jul-17 17:03N 36°34' W 026°10'3 7.7
2017-Jul-17 16:38N 36°34' W 026°06'2 7.5
2017-Jul-17 16:25N 36°34' W 026°04'3 7.5
2017-Jul-17 16:00N 36°34' W 025°60'1 2.4
2017-Jul-17 15:30N 36°34' W 025°59'3 6.1
2017-Jul-17 15:00N 36°35' W 026°02'3 6.0
2017-Jul-17 14:30N 36°36' W 026°06'3 5.7
2017-Jul-17 14:00N 36°37' W 026°09'3 5.8
2017-Jul-17 13:30N 36°38' W 026°12'23 6.3
2017-Jul-17 09:52N 36°52' W 026°35'4 6.3
2017-Jul-17 09:15N 36°54' W 026°39'2 6.2
2017-Jul-17 08:58N 36°55' W 026°41'4 6.3
2017-Jul-17 08:18N 36°57' W 026°45'2 6.4
2017-Jul-17 08:00N 36°58' W 026°47'3 6.4
2017-Jul-17 07:30N 37°00' W 026°51'4 6.4
2017-Jul-17 06:50N 37°02' W 026°55'3 6.5
2017-Jul-17 06:26N 37°04' W 026°58'3 6.2
2017-Jul-17 06:00N 37°06' W 027°00'50 6.3
2017-Jul-16 22:01N 37°36' W 027°51'1 6.5
2017-Jul-16 21:56N 37°36' W 027°52'3 6.2
2017-Jul-16 21:30N 37°38' W 027°54'2 4.1
2017-Jul-16 21:00N 37°40' W 027°54'3 5.8
2017-Jul-16 20:30N 37°39' W 027°50'3 6.2
2017-Jul-16 20:00N 37°37' W 027°47'3 6.4
2017-Jul-16 19:31N 37°35' W 027°44'5 6.4
2017-Jul-16 18:42N 37°32' W 027°39'41 6.3
2017-Jul-16 12:13N 37°08' W 026°57'2 6.2
2017-Jul-16 11:57N 37°07' W 026°56'3 6.1
2017-Jul-16 11:29N 37°05' W 026°53'3 6.2
2017-Jul-16 10:56N 37°03' W 026°49'3 6.1
2017-Jul-16 10:25N 37°02' W 026°46'3 6.2
2017-Jul-16 09:56N 36°60' W 026°42'4 6.2
2017-Jul-16 09:20N 36°58' W 026°38'2 6.3
2017-Jul-16 09:00N 36°57' W 026°36'4 6.3
2017-Jul-16 08:24N 36°55' W 026°32'3 6.2
2017-Jul-16 07:57N 36°53' W 026°30'3 6.3
2017-Jul-16 07:30N 36°51' W 026°27'23 6.1
2017-Jul-16 03:42N 36°39' W 026°02'1 6.1
2017-Jul-16 03:30N 36°39' W 026°01'4 6.1
2017-Jul-16 02:55N 36°38' W 025°56'3 6.1
2017-Jul-16 02:30N 36°38' W 025°53'3 5.9
2017-Jul-16 02:00N 36°37' W 025°50'3 6.6
2017-Jul-16 01:30N 36°37' W 025°45'3 6.0
2017-Jul-16 01:00N 36°39' W 025°42'3 5.9
2017-Jul-16 00:31N 36°42' W 025°44'3 6.1
2017-Jul-16 00:00N 36°42' W 025°48'3 6.1
2017-Jul-15 23:30N 36°42' W 025°52'3 6.2
2017-Jul-15 23:00N 36°43' W 025°56'3 6.3
2017-Jul-15 22:30N 36°43' W 025°59'3 6.4
2017-Jul-15 22:00N 36°44' W 026°03'3 6.3
2017-Jul-15 21:30N 36°46' W 026°07'4 6.3
2017-Jul-15 20:51N 36°48' W 026°11'2 6.1
2017-Jul-15 20:26N 36°49' W 026°14'8 6.3
2017-Jul-15 19:05N 36°54' W 026°22'1 6.6
2017-Jul-15 18:59N 36°54' W 026°23'3 6.5
2017-Jul-15 18:30N 36°56' W 026°26'3 6.7
2017-Jul-15 18:00N 36°58' W 026°30'3 6.3
2017-Jul-15 17:27N 36°60' W 026°34'3 6.2
2017-Jul-15 17:00N 37°01' W 026°37'3 6.5
2017-Jul-15 16:30N 37°03' W 026°40'3 6.2
2017-Jul-15 16:00N 37°05' W 026°43'3 6.3
2017-Jul-15 15:30N 37°06' W 026°47'3 6.2
2017-Jul-15 15:00N 37°08' W 026°50'7 6.3
2017-Jul-15 13:57N 37°12' W 026°57'6 6.3
2017-Jul-15 13:04N 37°15' W 027°03'45 6.3
2017-Jul-15 05:53N 37°42' W 027°48'2 4.5
2017-Jul-15 05:30N 37°44' W 027°48'3 6.4
2017-Jul-15 05:00N 37°43' W 027°44'3 6.6
2017-Jul-15 04:30N 37°41' W 027°41'3 6.3
2017-Jul-15 04:00N 37°39' W 027°38'3 5.9
2017-Jul-15 03:30N 37°37' W 027°35'3 6.2
2017-Jul-15 03:00N 37°35' W 027°32'5 6.5
2017-Jul-15 02:13N 37°32' W 027°27'3 6.5
2017-Jul-15 01:42N 37°30' W 027°23'1 6.4
2017-Jul-15 01:29N 37°29' W 027°22'3 6.4
2017-Jul-15 01:00N 37°28' W 027°18'3 6.4
2017-Jul-15 00:30N 37°27' W 027°15'6 6.1
2017-Jul-14 23:32N 37°23' W 027°09'0 5.9
2017-Jul-14 23:29N 37°23' W 027°09'4 6.3
2017-Jul-14 22:52N 37°20' W 027°05'2 6.3
2017-Jul-14 22:30N 37°19' W 027°03'3 6.3
2017-Jul-14 21:58N 37°17' W 026°59'3 6.0
2017-Jul-14 21:31N 37°15' W 026°56'3 6.5
2017-Jul-14 21:00N 37°14' W 026°53'3 6.3
2017-Jul-14 20:30N 37°12' W 026°49'3 6.4
2017-Jul-14 20:00N 37°10' W 026°46'3 6.3
2017-Jul-14 19:30N 37°09' W 026°42'3 6.2
2017-Jul-14 19:01N 37°07' W 026°39'3 6.4
2017-Jul-14 18:31N 37°05' W 026°36'3 6.3
2017-Jul-14 18:00N 37°04' W 026°32'3 6.5
2017-Jul-14 17:29N 37°02' W 026°29'3 6.5
2017-Jul-14 17:00N 37°00' W 026°25'3 6.3
2017-Jul-14 16:31N 36°59' W 026°22'3 6.1
2017-Jul-14 16:00N 36°57' W 026°19'3 6.3
2017-Jul-14 15:30N 36°55' W 026°15'3 6.5
2017-Jul-14 15:00N 36°54' W 026°12'3 6.3
2017-Jul-14 14:30N 36°52' W 026°08'4 6.2
2017-Jul-14 13:49N 36°50' W 026°04'3 6.3
2017-Jul-14 13:24N 36°49' W 026°01'2 6.1
2017-Jul-14 13:01N 36°48' W 025°58'3 6.2
2017-Jul-14 12:30N 36°47' W 025°54'3 6.3
2017-Jul-14 12:00N 36°47' W 025°50'3 6.0
2017-Jul-14 11:30N 36°47' W 025°47'3 5.7
2017-Jul-14 11:00N 36°47' W 025°43'2 3.7
2017-Jul-14 10:30N 36°45' W 025°45'3 6.3
2017-Jul-14 10:00N 36°42' W 025°44'3 6.4
2017-Jul-14 09:30N 36°39' W 025°44'3 6.4
2017-Jul-14 09:00N 36°36' W 025°45'1 2.3
2017-Jul-14 08:29N 36°36' W 025°44'3 6.0
2017-Jul-14 07:58N 36°39' W 025°43'3 6.1
2017-Jul-14 07:30N 36°41' W 025°42'3 6.1
2017-Jul-14 07:00N 36°44' W 025°43'3 6.3
2017-Jul-14 06:30N 36°47' W 025°43'3 6.4
2017-Jul-14 06:00N 36°51' W 025°43'3 5.2
2017-Jul-14 05:30N 36°53' W 025°41'3 6.4
2017-Jul-14 05:00N 36°49' W 025°41'3 6.6
2017-Jul-14 04:30N 36°46' W 025°41'8 1.4
2017-Jul-13 22:39N 36°42' W 025°32'1 6.0
2017-Jul-13 22:31N 36°41' W 025°32'3 6.2
2017-Jul-13 22:00N 36°38' W 025°32'2 3.7
2017-Jul-13 21:31N 36°37' W 025°32'3 5.1
2017-Jul-13 21:00N 36°34' W 025°30'3 6.6
2017-Jul-13 20:30N 36°35' W 025°26'0 0.2
2017-Jul-13 20:01N 36°35' W 025°27'3 6.4
2017-Jul-13 19:30N 36°38' W 025°27'3 6.3
2017-Jul-13 19:00N 36°41' W 025°27'3 5.4
2017-Jul-13 18:30N 36°44' W 025°27'3 5.0
2017-Jul-13 18:00N 36°42' W 025°25'3 6.4
2017-Jul-13 17:30N 36°44' W 025°28'3 5.8
2017-Jul-13 17:00N 36°45' W 025°31'3 5.8
2017-Jul-13 16:30N 36°46' W 025°34'3 5.9
2017-Jul-13 16:00N 36°48' W 025°37'3 5.9
2017-Jul-13 15:30N 36°50' W 025°40'3 6.1
2017-Jul-13 15:00N 36°50' W 025°43'3 6.1
2017-Jul-13 14:30N 36°51' W 025°47'3 6.4
2017-Jul-13 14:00N 36°51' W 025°51'3 6.2
2017-Jul-13 13:30N 36°52' W 025°55'3 6.1
2017-Jul-13 13:00N 36°53' W 025°59'3 6.2
2017-Jul-13 12:31N 36°54' W 026°02'3 6.1
2017-Jul-13 12:00N 36°56' W 026°05'3 6.2
2017-Jul-13 11:30N 36°58' W 026°09'3 6.2
2017-Jul-13 11:00N 36°59' W 026°12'3 6.1
2017-Jul-13 10:31N 37°01' W 026°15'3 6.1
2017-Jul-13 10:01N 37°02' W 026°19'3 6.0
2017-Jul-13 09:31N 37°04' W 026°22'3 6.2
2017-Jul-13 09:00N 37°05' W 026°25'3 6.2
2017-Jul-13 08:30N 37°07' W 026°29'3 6.4
2017-Jul-13 08:00N 37°08' W 026°32'3 6.5
2017-Jul-13 07:30N 37°10' W 026°36'3 6.5
2017-Jul-13 07:00N 37°12' W 026°39'3 6.3
2017-Jul-13 06:30N 37°13' W 026°43'3 6.5
2017-Jul-13 06:00N 37°15' W 026°46'3 6.4
2017-Jul-13 05:30N 37°17' W 026°49'3 6.7
2017-Jul-13 05:00N 37°19' W 026°53'3 6.5
2017-Jul-13 04:30N 37°20' W 026°57'3 6.4
2017-Jul-13 04:00N 37°22' W 026°60'3 6.3
2017-Jul-13 03:29N 37°24' W 027°03'3 6.1
2017-Jul-13 02:55N 37°26' W 027°07'4 6.2
2017-Jul-13 02:11N 37°29' W 027°11'3 6.0
2017-Jul-13 01:45N 37°30' W 027°14'3 6.3
2017-Jul-13 01:19N 37°31' W 027°17'5 6.1
2017-Jul-13 00:29N 37°34' W 027°23'3 6.3
2017-Jul-12 23:56N 37°36' W 027°26'5 6.2
2017-Jul-12 23:05N 37°39' W 027°32'1 5.8
2017-Jul-12 22:59N 37°39' W 027°32'8 6.2
2017-Jul-12 21:46N 37°44' W 027°40'2 6.4
2017-Jul-12 21:23N 37°45' W 027°42'2 6.2
2017-Jul-12 21:00N 37°47' W 027°40'4 7.5
2017-Jul-12 20:30N 37°49' W 027°36'2 3.3
2017-Jul-12 20:01N 37°50' W 027°34'2 3.2
2017-Jul-12 19:30N 37°51' W 027°32'3 6.8
2017-Jul-12 19:00N 37°53' W 027°29'  
Track history (hours):
 
Tides and Currents Weather Stations Pressure Air Temp Water Temp Dewpoint Dewpoint Depression Visibility Wind Speed Wind Dir Waves Ship Positions

Oceanographic research ship D. Carlos I (Portugal)

Detailed information on ship capabilities available from University of Delaware's Ocean Information Center.

Last reported at 2017-Jul-21 10:56 UTC. Time now 2017-Jul-27 16:53 UTC.
Position N 38°14' W 026°37'.

Length 68 m; draft 6 m.

Type: Dredging. MMSI: 263144000.

Date/timePositionNaut miles runAvg speedWind from/ knotsBaromVisibWave heightAir tempDewpointWater temp
2017-Jul-21 10:56N 38°14' W 026°37'3 7.7
2017-Jul-21 10:30N 38°11' W 026°36'4 7.7
2017-Jul-21 10:00N 38°07' W 026°34'24 6.3
2017-Jul-21 06:10N 37°44' W 026°44'1 7.2
2017-Jul-21 06:00N 37°43' W 026°45'3 6.7
2017-Jul-21 05:30N 37°41' W 026°48'3 6.3
2017-Jul-21 05:01N 37°38' W 026°50'3 6.1
2017-Jul-21 04:30N 37°36' W 026°53'3 6.3
2017-Jul-21 04:00N 37°33' W 026°55'3 6.7
2017-Jul-21 03:30N 37°31' W 026°58'4 7.0
2017-Jul-21 03:00N 37°28' W 027°00'5 6.7
2017-Jul-21 02:17N 37°24' W 027°04'3 6.4
2017-Jul-21 01:52N 37°22' W 027°06'3 5.9
2017-Jul-21 01:25N 37°20' W 027°08'3 6.1
2017-Jul-21 01:00N 37°18' W 027°10'39 1.3
2017-Jul-19 17:52N 36°40' W 027°23'6 6.9
2017-Jul-19 17:03N 36°40' W 027°30'2 6.8
2017-Jul-19 16:44N 36°40' W 027°33'50 1.8
2017-Jul-18 13:07N 37°27' W 027°52'1 6.7
2017-Jul-18 12:59N 37°28' W 027°53'3 6.5
2017-Jul-18 12:30N 37°30' W 027°56'3 6.3
2017-Jul-18 12:00N 37°32' W 027°59'3 6.4
2017-Jul-18 11:30N 37°34' W 028°02'3 5.9
2017-Jul-18 11:00N 37°36' W 028°03'2 4.9
2017-Jul-18 10:30N 37°37' W 028°00'3 6.0
2017-Jul-18 10:00N 37°35' W 027°57'3 6.3
2017-Jul-18 09:30N 37°33' W 027°54'3 6.4
2017-Jul-18 09:00N 37°31' W 027°51'3 6.2
2017-Jul-18 08:30N 37°29' W 027°48'3 6.2
2017-Jul-18 08:00N 37°27' W 027°45'3 6.1
2017-Jul-18 07:30N 37°25' W 027°42'5 6.3
2017-Jul-18 06:39N 37°22' W 027°37'35 6.2
2017-Jul-18 01:01N 37°02' W 027°01'0 6.5
2017-Jul-18 01:00N 37°02' W 027°01'3 6.0
2017-Jul-18 00:29N 36°60' W 026°58'3 6.3
2017-Jul-17 23:55N 36°58' W 026°54'3 6.2
2017-Jul-17 23:27N 36°57' W 026°51'3 6.2
2017-Jul-17 22:57N 36°55' W 026°48'3 6.3
2017-Jul-17 22:28N 36°53' W 026°45'3 6.5
2017-Jul-17 22:00N 36°51' W 026°42'3 6.5
2017-Jul-17 21:30N 36°49' W 026°38'3 6.2
2017-Jul-17 21:00N 36°47' W 026°35'3 6.2
2017-Jul-17 20:30N 36°45' W 026°33'3 6.3
2017-Jul-17 20:00N 36°43' W 026°30'3 6.2
2017-Jul-17 19:30N 36°41' W 026°27'11 6.4
2017-Jul-17 17:46N 36°35' W 026°16'5 6.8
2017-Jul-17 17:03N 36°34' W 026°10'3 7.7
2017-Jul-17 16:38N 36°34' W 026°06'2 7.5
2017-Jul-17 16:25N 36°34' W 026°04'3 7.5
2017-Jul-17 16:00N 36°34' W 025°60'1 2.4
2017-Jul-17 15:30N 36°34' W 025°59'3 6.1
2017-Jul-17 15:00N 36°35' W 026°02'3 6.0
2017-Jul-17 14:30N 36°36' W 026°06'3 5.7
2017-Jul-17 14:00N 36°37' W 026°09'3 5.8
2017-Jul-17 13:30N 36°38' W 026°12'23 6.3
2017-Jul-17 09:52N 36°52' W 026°35'4 6.3
2017-Jul-17 09:15N 36°54' W 026°39'2 6.2
2017-Jul-17 08:58N 36°55' W 026°41'4 6.3
2017-Jul-17 08:18N 36°57' W 026°45'2 6.4
2017-Jul-17 08:00N 36°58' W 026°47'3 6.4
2017-Jul-17 07:30N 37°00' W 026°51'4 6.4
2017-Jul-17 06:50N 37°02' W 026°55'3 6.5
2017-Jul-17 06:26N 37°04' W 026°58'3 6.2
2017-Jul-17 06:00N 37°06' W 027°00'50 6.3
2017-Jul-16 22:01N 37°36' W 027°51'1 6.5
2017-Jul-16 21:56N 37°36' W 027°52'3 6.2
2017-Jul-16 21:30N 37°38' W 027°54'2 4.1
2017-Jul-16 21:00N 37°40' W 027°54'3 5.8
2017-Jul-16 20:30N 37°39' W 027°50'3 6.2
2017-Jul-16 20:00N 37°37' W 027°47'3 6.4
2017-Jul-16 19:31N 37°35' W 027°44'5 6.4
2017-Jul-16 18:42N 37°32' W 027°39'41 6.3
2017-Jul-16 12:13N 37°08' W 026°57'2 6.2
2017-Jul-16 11:57N 37°07' W 026°56'3 6.1
2017-Jul-16 11:29N 37°05' W 026°53'3 6.2
2017-Jul-16 10:56N 37°03' W 026°49'3 6.1
2017-Jul-16 10:25N 37°02' W 026°46'3 6.2
2017-Jul-16 09:56N 36°60' W 026°42'4 6.2
2017-Jul-16 09:20N 36°58' W 026°38'2 6.3
2017-Jul-16 09:00N 36°57' W 026°36'4 6.3
2017-Jul-16 08:24N 36°55' W 026°32'3 6.2
2017-Jul-16 07:57N 36°53' W 026°30'3 6.3
2017-Jul-16 07:30N 36°51' W 026°27'23 6.1
2017-Jul-16 03:42N 36°39' W 026°02'1 6.1
2017-Jul-16 03:30N 36°39' W 026°01'4 6.1
2017-Jul-16 02:55N 36°38' W 025°56'3 6.1
2017-Jul-16 02:30N 36°38' W 025°53'3 5.9
2017-Jul-16 02:00N 36°37' W 025°50'3 6.6
2017-Jul-16 01:30N 36°37' W 025°45'3 6.0
2017-Jul-16 01:00N 36°39' W 025°42'3 5.9
2017-Jul-16 00:31N 36°42' W 025°44'3 6.1
2017-Jul-16 00:00N 36°42' W 025°48'3 6.1
2017-Jul-15 23:30N 36°42' W 025°52'3 6.2
2017-Jul-15 23:00N 36°43' W 025°56'3 6.3
2017-Jul-15 22:30N 36°43' W 025°59'3 6.4
2017-Jul-15 22:00N 36°44' W 026°03'3 6.3
2017-Jul-15 21:30N 36°46' W 026°07'4 6.3
2017-Jul-15 20:51N 36°48' W 026°11'2 6.1
2017-Jul-15 20:26N 36°49' W 026°14'8 6.3
2017-Jul-15 19:05N 36°54' W 026°22'1 6.6
2017-Jul-15 18:59N 36°54' W 026°23'3 6.5
2017-Jul-15 18:30N 36°56' W 026°26'3 6.7
2017-Jul-15 18:00N 36°58' W 026°30'3 6.3
2017-Jul-15 17:27N 36°60' W 026°34'3 6.2
2017-Jul-15 17:00N 37°01' W 026°37'3 6.5
2017-Jul-15 16:30N 37°03' W 026°40'3 6.2
2017-Jul-15 16:00N 37°05' W 026°43'3 6.3
2017-Jul-15 15:30N 37°06' W 026°47'3 6.2
2017-Jul-15 15:00N 37°08' W 026°50'7 6.3
2017-Jul-15 13:57N 37°12' W 026°57'6 6.3
2017-Jul-15 13:04N 37°15' W 027°03'45 6.3
2017-Jul-15 05:53N 37°42' W 027°48'2 4.5
2017-Jul-15 05:30N 37°44' W 027°48'3 6.4
2017-Jul-15 05:00N 37°43' W 027°44'3 6.6
2017-Jul-15 04:30N 37°41' W 027°41'3 6.3
2017-Jul-15 04:00N 37°39' W 027°38'3 5.9
2017-Jul-15 03:30N 37°37' W 027°35'3 6.2
2017-Jul-15 03:00N 37°35' W 027°32'5 6.5
2017-Jul-15 02:13N 37°32' W 027°27'3 6.5
2017-Jul-15 01:42N 37°30' W 027°23'1 6.4
2017-Jul-15 01:29N 37°29' W 027°22'3 6.4
2017-Jul-15 01:00N 37°28' W 027°18'3 6.4
2017-Jul-15 00:30N 37°27' W 027°15'6 6.1
2017-Jul-14 23:32N 37°23' W 027°09'0 5.9
2017-Jul-14 23:29N 37°23' W 027°09'4 6.3
2017-Jul-14 22:52N 37°20' W 027°05'2 6.3
2017-Jul-14 22:30N 37°19' W 027°03'3 6.3
2017-Jul-14 21:58N 37°17' W 026°59'3 6.0
2017-Jul-14 21:31N 37°15' W 026°56'3 6.5
2017-Jul-14 21:00N 37°14' W 026°53'3 6.3
2017-Jul-14 20:30N 37°12' W 026°49'3 6.4
2017-Jul-14 20:00N 37°10' W 026°46'3 6.3
2017-Jul-14 19:30N 37°09' W 026°42'3 6.2
2017-Jul-14 19:01N 37°07' W 026°39'3 6.4
2017-Jul-14 18:31N 37°05' W 026°36'3 6.3
2017-Jul-14 18:00N 37°04' W 026°32'3 6.5
2017-Jul-14 17:29N 37°02' W 026°29'3 6.5
2017-Jul-14 17:00N 37°00' W 026°25'3 6.3
2017-Jul-14 16:31N 36°59' W 026°22'3 6.1
2017-Jul-14 16:00N 36°57' W 026°19'3 6.3
2017-Jul-14 15:30N 36°55' W 026°15'3 6.5
2017-Jul-14 15:00N 36°54' W 026°12'3 6.3
2017-Jul-14 14:30N 36°52' W 026°08'4 6.2
2017-Jul-14 13:49N 36°50' W 026°04'3 6.3
2017-Jul-14 13:24N 36°49' W 026°01'2 6.1
2017-Jul-14 13:01N 36°48' W 025°58'3 6.2
2017-Jul-14 12:30N 36°47' W 025°54'3 6.3
2017-Jul-14 12:00N 36°47' W 025°50'3 6.0
2017-Jul-14 11:30N 36°47' W 025°47'3 5.7
2017-Jul-14 11:00N 36°47' W 025°43'2 3.7
2017-Jul-14 10:30N 36°45' W 025°45'3 6.3
2017-Jul-14 10:00N 36°42' W 025°44'3 6.4
2017-Jul-14 09:30N 36°39' W 025°44'3 6.4
2017-Jul-14 09:00N 36°36' W 025°45'1 2.3
2017-Jul-14 08:29N 36°36' W 025°44'3 6.0
2017-Jul-14 07:58N 36°39' W 025°43'3 6.1
2017-Jul-14 07:30N 36°41' W 025°42'3 6.1
2017-Jul-14 07:00N 36°44' W 025°43'3 6.3
2017-Jul-14 06:30N 36°47' W 025°43'3 6.4
2017-Jul-14 06:00N 36°51' W 025°43'3 5.2
2017-Jul-14 05:30N 36°53' W 025°41'3 6.4
2017-Jul-14 05:00N 36°49' W 025°41'3 6.6
2017-Jul-14 04:30N 36°46' W 025°41'8 1.4
2017-Jul-13 22:39N 36°42' W 025°32'1 6.0
2017-Jul-13 22:31N 36°41' W 025°32'3 6.2
2017-Jul-13 22:00N 36°38' W 025°32'2 3.7
2017-Jul-13 21:31N 36°37' W 025°32'3 5.1
2017-Jul-13 21:00N 36°34' W 025°30'3 6.6
2017-Jul-13 20:30N 36°35' W 025°26'0 0.2
2017-Jul-13 20:01N 36°35' W 025°27'3 6.4
2017-Jul-13 19:30N 36°38' W 025°27'3 6.3
2017-Jul-13 19:00N 36°41' W 025°27'3 5.4
2017-Jul-13 18:30N 36°44' W 025°27'3 5.0
2017-Jul-13 18:00N 36°42' W 025°25'3 6.4
2017-Jul-13 17:30N 36°44' W 025°28'3 5.8
2017-Jul-13 17:00N 36°45' W 025°31'3 5.8
2017-Jul-13 16:30N 36°46' W 025°34'3 5.9
2017-Jul-13 16:00N 36°48' W 025°37'3 5.9
2017-Jul-13 15:30N 36°50' W 025°40'3 6.1
2017-Jul-13 15:00N 36°50' W 025°43'3 6.1
2017-Jul-13 14:30N 36°51' W 025°47'3 6.4
2017-Jul-13 14:00N 36°51' W 025°51'3 6.2
2017-Jul-13 13:30N 36°52' W 025°55'3 6.1
2017-Jul-13 13:00N 36°53' W 025°59'3 6.2
2017-Jul-13 12:31N 36°54' W 026°02'3 6.1
2017-Jul-13 12:00N 36°56' W 026°05'3 6.2
2017-Jul-13 11:30N 36°58' W 026°09'3 6.2
2017-Jul-13 11:00N 36°59' W 026°12'3 6.1
2017-Jul-13 10:31N 37°01' W 026°15'3 6.1
2017-Jul-13 10:01N 37°02' W 026°19'3 6.0
2017-Jul-13 09:31N 37°04' W 026°22'3 6.2
2017-Jul-13 09:00N 37°05' W 026°25'3 6.2
2017-Jul-13 08:30N 37°07' W 026°29'3 6.4
2017-Jul-13 08:00N 37°08' W 026°32'3 6.5
2017-Jul-13 07:30N 37°10' W 026°36'3 6.5
2017-Jul-13 07:00N 37°12' W 026°39'3 6.3
2017-Jul-13 06:30N 37°13' W 026°43'3 6.5
2017-Jul-13 06:00N 37°15' W 026°46'3 6.4
2017-Jul-13 05:30N 37°17' W 026°49'3 6.7
2017-Jul-13 05:00N 37°19' W 026°53'3 6.5
2017-Jul-13 04:30N 37°20' W 026°57'3 6.4
2017-Jul-13 04:00N 37°22' W 026°60'3 6.3
2017-Jul-13 03:29N 37°24' W 027°03'3 6.1
2017-Jul-13 02:55N 37°26' W 027°07'4 6.2
2017-Jul-13 02:11N 37°29' W 027°11'3 6.0
2017-Jul-13 01:45N 37°30' W 027°14'3 6.3
2017-Jul-13 01:19N 37°31' W 027°17'5 6.1
2017-Jul-13 00:29N 37°34' W 027°23'3 6.3
2017-Jul-12 23:56N 37°36' W 027°26'5 6.2
2017-Jul-12 23:05N 37°39' W 027°32'1 5.8
2017-Jul-12 22:59N 37°39' W 027°32'8 6.2
2017-Jul-12 21:46N 37°44' W 027°40'2 6.4
2017-Jul-12 21:23N 37°45' W 027°42'2 6.2
2017-Jul-12 21:00N 37°47' W 027°40'4 7.5
2017-Jul-12 20:30N 37°49' W 027°36'2 3.3
2017-Jul-12 20:01N 37°50' W 027°34'2 3.2
2017-Jul-12 19:30N 37°51' W 027°32'3 6.8
2017-Jul-12 19:00N 37°53' W 027°29'  

Dump ship's entire track history